createdAt,value
2022-09-12T00:00:15.923Z,7.90
2022-09-12T00:02:43.084Z,7.35
2022-09-12T00:05:10.176Z,7.35
2022-09-12T00:07:37.254Z,8.00
2022-09-12T00:10:05.186Z,7.30
2022-09-12T00:12:32.225Z,7.43
2022-09-12T00:14:59.302Z,8.20
2022-09-12T00:17:26.449Z,8.13
2022-09-12T00:19:53.705Z,8.45
2022-09-12T00:22:20.755Z,8.18
2022-09-12T00:24:47.921Z,8.35
2022-09-12T00:27:15.387Z,8.48
2022-09-12T00:29:42.694Z,8.65
2022-09-12T00:32:09.851Z,8.90
2022-09-12T00:34:37.223Z,8.77
2022-09-12T00:37:04.786Z,8.95
2022-09-12T00:39:31.977Z,9.40
2022-09-12T00:41:59.210Z,8.35
2022-09-12T00:44:26.246Z,8.73
2022-09-12T00:46:59.447Z,8.63
2022-09-12T00:49:31.164Z,9.20
2022-09-12T00:52:16.125Z,8.75
2022-09-12T00:54:51.320Z,8.20
2022-09-12T00:57:19.704Z,9.18
2022-09-12T01:00:01.607Z,8.40
2022-09-12T01:02:30.794Z,7.88
2022-09-12T01:04:57.911Z,8.43
2022-09-12T01:07:25.067Z,9.00
2022-09-12T01:09:52.275Z,8.38
2022-09-12T01:12:19.525Z,8.60
2022-09-12T01:14:46.664Z,8.68
2022-09-12T01:17:15.454Z,8.95
2022-09-12T01:19:42.436Z,9.15
2022-09-12T01:22:38.995Z,9.30
2022-09-12T01:25:35.320Z,8.90
2022-09-12T01:28:14.252Z,8.48
2022-09-12T01:30:44.465Z,9.20
2022-09-12T01:33:20.699Z,8.75
2022-09-12T01:36:26.226Z,7.68
2022-09-12T01:39:01.611Z,8.05
2022-09-12T01:41:37.514Z,7.32
2022-09-12T01:44:19.845Z,8.27
2022-09-12T01:47:10.289Z,7.70
2022-09-12T01:49:40.272Z,8.23
2022-09-12T01:52:23.331Z,7.32
2022-09-12T01:55:09.954Z,7.90
2022-09-12T01:57:48.462Z,6.93
2022-09-12T02:00:15.979Z,7.47
2022-09-12T02:03:02.830Z,8.70
2022-09-12T02:06:03.650Z,8.05
2022-09-12T02:08:38.796Z,8.88
2022-09-12T02:11:11.985Z,9.48
2022-09-12T02:13:48.458Z,9.60
2022-09-12T02:16:25.414Z,8.82
2022-09-12T02:19:00.667Z,8.23
2022-09-12T02:21:33.014Z,9.30
2022-09-12T02:24:03.108Z,8.10
2022-09-12T02:26:35.747Z,7.35
2022-09-12T02:29:04.732Z,7.57
2022-09-12T02:31:42.126Z,7.80
2022-09-12T02:34:44.857Z,7.53
2022-09-12T02:37:26.010Z,7.95
2022-09-12T02:39:55.451Z,11.82
2022-09-12T02:42:23.446Z,11.18
2022-09-12T02:44:52.939Z,10.77
2022-09-12T02:47:27.508Z,9.57
2022-09-12T02:49:57.141Z,9.43
2022-09-12T02:52:24.703Z,10.23
2022-09-12T02:54:52.475Z,9.70
2022-09-12T02:57:23.201Z,9.85
2022-09-12T02:59:53.698Z,11.30
2022-09-12T03:02:30.663Z,11.85
2022-09-12T03:05:22.962Z,11.05
2022-09-12T03:08:27.456Z,12.38
2022-09-12T03:11:11.403Z,12.80
2022-09-12T03:14:13.044Z,12.45
2022-09-12T03:17:12.416Z,12.02
2022-09-12T03:19:51.477Z,12.05
2022-09-12T03:22:50.994Z,11.82
2022-09-12T03:25:25.209Z,11.95
2022-09-12T03:28:01.473Z,11.02
2022-09-12T03:30:29.029Z,12.30
2022-09-12T03:32:56.112Z,13.02
2022-09-12T03:35:25.025Z,14.50
2022-09-12T03:37:53.233Z,14.73
2022-09-12T03:40:20.618Z,15.98
2022-09-12T03:42:47.750Z,17.65
2022-09-12T03:45:16.726Z,17.83
2022-09-12T03:47:43.736Z,17.48
2022-09-12T03:50:11.363Z,18.48
2022-09-12T03:52:38.713Z,18.75
2022-09-12T03:55:06.359Z,19.08
2022-09-12T03:57:33.451Z,19.63
2022-09-12T04:00:02.109Z,17.02
2022-09-12T04:02:40.055Z,17.75
2022-09-12T04:05:07.324Z,18.10
2022-09-12T04:07:34.438Z,18.92
2022-09-12T04:10:01.511Z,18.48
2022-09-12T04:12:30.486Z,20.00
2022-09-12T04:17:06.472Z,18.98
2022-09-12T04:19:33.617Z,18.00
2022-09-12T04:22:00.507Z,18.15
2022-09-12T04:24:27.365Z,18.40
2022-09-12T04:26:54.320Z,18.25
2022-09-12T04:29:21.218Z,18.15
2022-09-12T04:31:48.045Z,17.95
2022-09-12T04:34:16.436Z,17.60
2022-09-12T04:36:43.309Z,17.58
2022-09-12T04:39:10.469Z,17.77
2022-09-12T04:41:38.338Z,16.80
2022-09-12T04:44:06.634Z,17.83
2022-09-12T04:46:35.448Z,19.05
2022-09-12T04:49:02.655Z,18.15
2022-09-12T04:51:31.130Z,16.17
2022-09-12T04:53:59.677Z,16.35
2022-09-12T04:56:27.060Z,16.80
2022-09-12T04:58:54.030Z,16.23
2022-09-12T05:01:22.135Z,17.40
2022-09-12T05:03:49.704Z,14.60
2022-09-12T05:06:17.943Z,17.33
2022-09-12T05:08:45.038Z,16.55
2022-09-12T05:11:13.200Z,16.40
2022-09-12T05:13:40.841Z,16.92
2022-09-12T05:16:08.325Z,16.45
2022-09-12T05:18:36.020Z,15.52
2022-09-12T05:21:04.316Z,16.35
2022-09-12T05:23:31.651Z,15.25
2022-09-12T05:25:59.674Z,15.07
2022-09-12T05:28:29.813Z,15.63
2022-09-12T05:31:03.814Z,16.98
2022-09-12T05:33:31.153Z,14.30
2022-09-12T05:35:57.886Z,14.05
2022-09-12T05:38:25.232Z,14.25
2022-09-12T05:40:52.225Z,14.43
2022-09-12T05:43:20.387Z,13.85
2022-09-12T05:45:47.136Z,14.52
2022-09-12T05:48:13.956Z,13.30
2022-09-12T05:50:42.584Z,14.52
2022-09-12T05:53:09.408Z,14.80
2022-09-12T05:55:36.854Z,13.32
2022-09-12T05:58:03.697Z,13.95
2022-09-12T06:00:33.557Z,13.30
2022-09-12T06:03:01.573Z,12.40
2022-09-12T06:05:28.541Z,14.35
2022-09-12T06:07:55.414Z,14.38
2022-09-12T06:10:23.147Z,13.25
2022-09-12T06:12:50.062Z,13.63
2022-09-12T06:15:17.104Z,13.93
2022-09-12T06:17:46.395Z,13.07
2022-09-12T06:20:15.110Z,12.73
2022-09-12T06:22:42.513Z,12.90
2022-09-12T06:25:09.425Z,12.15
2022-09-12T06:27:37.283Z,12.93
2022-09-12T06:30:04.345Z,12.70
2022-09-12T06:32:31.759Z,13.18
2022-09-12T06:34:58.689Z,11.88
2022-09-12T06:37:25.466Z,13.05
2022-09-12T06:39:52.350Z,12.90
2022-09-12T06:42:20.144Z,12.32
2022-09-12T06:44:56.120Z,12.52
2022-09-12T06:47:23.684Z,11.52
2022-09-12T06:49:51.085Z,12.07
2022-09-12T06:52:18.207Z,11.35
2022-09-12T06:54:45.179Z,11.43
2022-09-12T06:57:12.004Z,11.82
2022-09-12T06:59:38.812Z,11.10
2022-09-12T07:02:05.814Z,11.23
2022-09-12T07:04:34.780Z,10.07
2022-09-12T07:07:01.558Z,10.98
2022-09-12T07:09:29.791Z,10.27
2022-09-12T07:11:56.647Z,10.20
2022-09-12T07:14:23.520Z,10.00
2022-09-12T07:16:50.290Z,10.07
2022-09-12T07:19:17.060Z,10.07
2022-09-12T07:21:44.676Z,10.38
2022-09-12T07:24:11.651Z,10.75
2022-09-12T07:26:40.200Z,9.90
2022-09-12T07:29:34.726Z,10.25
2022-09-12T07:31:54.911Z,9.80
2022-09-12T07:34:21.966Z,10.57
2022-09-12T07:36:48.823Z,10.40
2022-09-12T07:39:15.633Z,9.68
2022-09-12T07:41:42.529Z,10.02
2022-09-12T07:44:09.663Z,10.75
2022-09-12T07:46:36.608Z,9.57
2022-09-12T07:49:03.470Z,9.52
2022-09-12T07:51:30.874Z,9.75
2022-09-12T07:53:58.145Z,8.52
2022-09-12T07:56:29.630Z,8.82
2022-09-12T07:58:58.961Z,8.05
2022-09-12T08:01:26.435Z,9.57
2022-09-12T08:03:54.320Z,10.07
2022-09-12T08:06:24.137Z,8.18
2022-09-12T08:08:51.680Z,8.70
2022-09-12T08:11:19.518Z,8.57
2022-09-12T08:13:51.685Z,9.43
2022-09-12T08:16:21.897Z,9.05
2022-09-12T08:18:48.919Z,8.18
2022-09-12T08:21:17.073Z,8.80
2022-09-12T08:23:44.451Z,9.32
2022-09-12T08:26:11.847Z,9.80
2022-09-12T08:28:40.553Z,9.65
2022-09-12T08:31:08.406Z,9.95
2022-09-12T08:33:35.518Z,10.13
2022-09-12T08:36:04.643Z,10.02
2022-09-12T08:38:32.089Z,10.88
2022-09-12T08:41:12.016Z,10.55
2022-09-12T08:43:45.633Z,10.70
2022-09-12T08:46:18.618Z,11.63
2022-09-12T08:48:46.456Z,12.20
2022-09-12T08:51:15.303Z,11.60
2022-09-12T08:53:43.359Z,11.82
2022-09-12T08:56:11.997Z,13.90
2022-09-12T08:58:43.497Z,13.80
2022-09-12T09:01:10.737Z,13.82
2022-09-12T09:03:40.767Z,13.73
2022-09-12T09:06:18.373Z,14.95
2022-09-12T09:08:47.990Z,15.07
2022-09-12T09:11:15.007Z,15.93
2022-09-12T09:14:04.905Z,16.63
2022-09-12T09:16:35.169Z,16.52
2022-09-12T09:19:08.486Z,16.33
2022-09-12T09:22:04.895Z,16.20
2022-09-12T09:24:40.386Z,17.58
2022-09-12T09:27:36.758Z,16.77
2022-09-12T09:30:01.126Z,17.05
2022-09-12T09:32:33.808Z,16.73
2022-09-12T09:35:01.756Z,17.15
2022-09-12T09:37:30.394Z,16.60
2022-09-12T09:40:20.708Z,17.45
2022-09-12T09:42:50.597Z,17.83
2022-09-12T09:45:19.551Z,19.40
2022-09-12T09:47:49.713Z,17.15
2022-09-12T09:50:16.872Z,18.50
2022-09-12T09:52:44.077Z,16.35
2022-09-12T09:55:15.380Z,16.63
2022-09-12T09:57:43.009Z,17.67
2022-09-12T10:00:28.227Z,17.60
2022-09-12T10:03:21.289Z,16.45
2022-09-12T10:05:55.304Z,15.70
2022-09-12T10:08:26.514Z,15.02
2022-09-12T10:10:54.140Z,15.70
2022-09-12T10:13:27.416Z,15.57
2022-09-12T10:15:58.667Z,15.68
2022-09-12T10:18:54.805Z,15.23
2022-09-12T10:21:41.322Z,13.88
2022-09-12T10:24:14.316Z,13.95
2022-09-12T10:26:41.329Z,15.32
2022-09-12T10:29:13.566Z,14.98
2022-09-12T10:31:46.310Z,15.98
2022-09-12T10:34:34.790Z,15.40
2022-09-12T10:37:06.788Z,15.73
2022-09-12T10:39:35.998Z,14.93
2022-09-12T10:42:03.203Z,15.68
2022-09-12T10:44:31.291Z,15.85
2022-09-12T10:46:59.078Z,13.70
2022-09-12T10:49:27.508Z,14.15
2022-09-12T10:51:54.843Z,15.75
2022-09-12T10:54:23.163Z,15.05
2022-09-12T10:56:49.924Z,14.45
2022-09-12T10:59:25.836Z,15.18
2022-09-12T11:02:05.222Z,14.55
2022-09-12T11:04:58.194Z,15.05
2022-09-12T11:07:31.116Z,14.85
2022-09-12T11:10:03.798Z,14.48
2022-09-12T11:12:49.334Z,14.98
2022-09-12T11:15:17.224Z,13.75
2022-09-12T11:18:00.983Z,14.50
2022-09-12T11:20:27.966Z,13.48
2022-09-12T11:22:54.678Z,14.70
2022-09-12T11:25:44.420Z,14.80
2022-09-12T11:28:24.152Z,13.60
2022-09-12T11:31:02.379Z,14.68
2022-09-12T11:33:42.828Z,14.68
2022-09-12T11:36:28.848Z,14.52
2022-09-12T11:39:09.155Z,13.93
2022-09-12T11:41:37.689Z,14.50
2022-09-12T11:44:10.536Z,13.13
2022-09-12T11:46:38.495Z,14.35
2022-09-12T11:49:14.156Z,14.27
2022-09-12T11:51:50.254Z,14.27
2022-09-12T11:54:35.559Z,14.43
2022-09-12T11:57:14.739Z,14.20
2022-09-12T11:59:47.590Z,13.98
2022-09-12T12:02:19.792Z,14.05
2022-09-12T12:04:59.770Z,14.52
2022-09-12T12:07:26.781Z,14.80
2022-09-12T12:09:55.819Z,13.38
2022-09-12T12:12:25.042Z,12.82
2022-09-12T12:14:53.335Z,14.27
2022-09-12T12:17:22.115Z,13.55
2022-09-12T12:20:00.069Z,14.50
2022-09-12T12:22:31.637Z,14.43
2022-09-12T12:24:58.495Z,14.30
2022-09-12T12:27:43.924Z,14.43
2022-09-12T12:30:29.152Z,13.73
2022-09-12T12:33:03.252Z,14.55
2022-09-12T12:35:40.443Z,13.45
2022-09-12T12:38:25.930Z,14.20
2022-09-12T12:40:52.871Z,13.75
2022-09-12T12:43:32.050Z,13.48
2022-09-12T12:46:02.055Z,12.88
2022-09-12T12:48:30.578Z,11.57
2022-09-12T12:51:15.613Z,13.23
2022-09-12T12:53:42.596Z,13.52
2022-09-12T12:56:26.373Z,13.07
2022-09-12T12:59:00.833Z,13.00
2022-09-12T13:01:28.369Z,13.73
2022-09-12T13:04:11.345Z,12.00
2022-09-12T13:06:43.283Z,12.60
2022-09-12T13:09:25.226Z,12.10
2022-09-12T13:12:08.205Z,10.70
2022-09-12T13:14:47.437Z,11.13
2022-09-12T13:17:20.330Z,10.82
2022-09-12T13:19:47.423Z,10.60
2022-09-12T13:22:14.676Z,10.25
2022-09-12T13:24:49.294Z,10.60
2022-09-12T13:27:19.323Z,9.25
2022-09-12T13:29:46.255Z,9.57
2022-09-12T13:32:13.787Z,13.27
2022-09-12T13:34:48.745Z,10.10
2022-09-12T13:37:27.503Z,9.43
2022-09-12T13:40:14.362Z,9.05
2022-09-12T13:42:48.663Z,9.43
2022-09-12T13:45:18.872Z,8.77
2022-09-12T13:47:47.348Z,9.45
2022-09-12T13:50:22.983Z,8.07
2022-09-12T13:52:55.062Z,8.13
2022-09-12T13:55:25.482Z,8.32
2022-09-12T13:57:59.985Z,8.18
2022-09-12T14:00:28.340Z,8.10
2022-09-12T14:03:16.102Z,7.75
2022-09-12T14:05:48.019Z,7.65
2022-09-12T14:08:15.575Z,7.30
2022-09-12T14:10:43.970Z,7.10
2022-09-12T14:13:13.005Z,7.60
2022-09-12T14:15:40.537Z,7.25
2022-09-12T14:18:09.082Z,7.22
2022-09-12T14:20:37.895Z,7.28
2022-09-12T14:23:14.209Z,7.50
2022-09-12T14:25:41.704Z,7.15
2022-09-12T14:28:13.620Z,7.40
2022-09-12T14:30:41.043Z,6.90
2022-09-12T14:33:10.787Z,7.05
2022-09-12T14:35:42.727Z,7.30
2022-09-12T14:38:19.300Z,7.63
2022-09-12T14:40:51.875Z,6.97
2022-09-12T14:43:21.813Z,6.50
2022-09-12T14:46:15.007Z,7.03
2022-09-12T14:48:51.186Z,6.97
2022-09-12T14:51:26.494Z,7.20
2022-09-12T14:53:53.314Z,7.30
2022-09-12T14:56:36.756Z,6.43
2022-09-12T14:59:22.362Z,6.97
2022-09-12T15:01:49.180Z,6.50
2022-09-12T15:04:36.193Z,6.88
2022-09-12T15:07:16.799Z,6.90
2022-09-12T15:09:47.255Z,6.38
2022-09-12T15:14:41.373Z,6.88
2022-09-12T15:17:08.394Z,6.60
2022-09-12T15:19:35.695Z,7.35
2022-09-12T15:22:02.612Z,6.50
2022-09-12T15:24:29.514Z,5.97
2022-09-12T15:26:56.905Z,7.10
2022-09-12T15:29:24.127Z,6.43
2022-09-12T15:31:51.431Z,6.75
2022-09-12T15:34:21.107Z,6.32
2022-09-12T15:36:48.509Z,6.20
2022-09-12T15:39:15.625Z,6.35
2022-09-12T15:41:43.036Z,6.60
2022-09-12T15:44:12.318Z,6.15
2022-09-12T15:46:39.381Z,5.57
2022-09-12T15:49:07.430Z,6.90
2022-09-12T15:51:36.121Z,6.15
2022-09-12T15:54:04.564Z,6.85
2022-09-12T15:56:31.855Z,6.78
2022-09-12T15:59:00.166Z,6.07
2022-09-12T16:01:28.526Z,6.28
2022-09-12T16:03:56.905Z,6.03
2022-09-12T16:06:24.340Z,6.85
2022-09-12T16:08:51.148Z,6.22
2022-09-12T16:11:21.316Z,5.70
2022-09-12T16:13:49.137Z,6.75
2022-09-12T16:16:16.495Z,6.05
2022-09-12T16:18:43.798Z,5.82
2022-09-12T16:21:14.916Z,5.43
2022-09-12T16:23:43.636Z,5.53
2022-09-12T16:26:13.792Z,6.05
2022-09-12T16:28:41.041Z,5.65
2022-09-12T16:31:09.031Z,5.88
2022-09-12T16:33:37.680Z,6.50
2022-09-12T16:36:06.433Z,6.05
2022-09-12T16:38:34.839Z,6.20
2022-09-12T16:41:02.602Z,5.60
2022-09-12T16:43:29.995Z,5.45
2022-09-12T16:46:14.262Z,5.25
2022-09-12T16:48:50.936Z,5.82
2022-09-12T16:51:20.473Z,5.40
2022-09-12T16:53:47.570Z,6.72
2022-09-12T16:56:14.752Z,5.30
2022-09-12T16:58:44.523Z,6.45
2022-09-12T17:01:13.377Z,6.00
2022-09-12T17:03:40.770Z,5.75
2022-09-12T17:06:09.491Z,6.00
2022-09-12T17:08:38.241Z,6.40
2022-09-12T17:11:06.899Z,6.07
2022-09-12T17:14:00.175Z,5.68
2022-09-12T17:16:22.120Z,5.55
2022-09-12T17:18:50.012Z,5.68
2022-09-12T17:21:17.940Z,6.10
2022-09-12T17:23:45.331Z,6.00
2022-09-12T17:26:13.524Z,5.80
2022-09-12T17:28:41.172Z,5.72
2022-09-12T17:31:09.436Z,5.88
2022-09-12T17:33:37.057Z,6.13
2022-09-12T17:36:05.158Z,6.20
2022-09-12T17:38:33.261Z,6.20
2022-09-12T17:41:07.478Z,5.72
2022-09-12T17:43:35.702Z,6.15
2022-09-12T17:46:06.019Z,5.72
2022-09-12T17:48:33.512Z,6.35
2022-09-12T17:51:07.050Z,6.72
2022-09-12T17:53:34.719Z,8.00
2022-09-12T17:56:03.603Z,7.00
2022-09-12T17:58:31.455Z,7.53
2022-09-12T18:01:20.911Z,8.18
2022-09-12T18:03:48.789Z,7.75
2022-09-12T18:06:16.306Z,7.05
2022-09-12T18:08:43.212Z,7.57
2022-09-12T18:11:10.336Z,7.68
2022-09-12T18:13:44.237Z,8.45
2022-09-12T18:16:12.563Z,7.38
2022-09-12T18:18:40.563Z,8.00
2022-09-12T18:21:08.448Z,7.43
2022-09-12T18:23:35.727Z,7.55
2022-09-12T18:26:04.252Z,7.88
2022-09-12T18:28:35.209Z,8.35
2022-09-12T18:33:47.102Z,9.73
2022-09-12T18:36:15.133Z,9.07
2022-09-12T18:38:42.483Z,10.25
2022-09-12T18:41:10.944Z,8.90
2022-09-12T18:43:37.856Z,10.20
2022-09-12T18:46:05.696Z,9.38
2022-09-12T18:48:33.360Z,9.35
2022-09-12T18:51:08.292Z,9.38
2022-09-12T18:53:37.100Z,10.40
2022-09-12T18:56:06.375Z,11.93
2022-09-12T18:58:33.921Z,12.77
2022-09-12T19:01:00.962Z,14.02
2022-09-12T19:03:28.046Z,13.68
2022-09-12T19:05:55.057Z,12.63
2022-09-12T19:08:22.143Z,12.18
2022-09-12T19:10:54.629Z,13.68
2022-09-12T19:13:21.493Z,13.13
2022-09-12T19:15:48.436Z,13.25
2022-09-12T19:18:16.158Z,12.18
2022-09-12T19:20:43.294Z,12.00
2022-09-12T19:23:10.401Z,10.00
2022-09-12T19:25:37.400Z,10.50
2022-09-12T19:28:04.405Z,9.73
2022-09-12T19:30:31.295Z,10.15
2022-09-12T19:35:43.221Z,11.25
2022-09-12T19:38:10.272Z,10.45
2022-09-12T19:40:38.145Z,11.45
2022-09-12T19:43:05.127Z,11.82
2022-09-12T19:45:32.117Z,11.18
2022-09-12T19:47:59.044Z,10.05
2022-09-12T19:50:26.230Z,9.27
2022-09-12T19:52:53.063Z,8.20
2022-09-12T19:55:20.062Z,8.10
2022-09-12T19:57:46.967Z,8.23
2022-09-12T20:00:14.277Z,7.50
2022-09-12T20:02:41.242Z,7.50
2022-09-12T20:05:08.454Z,7.45
2022-09-12T20:07:35.396Z,8.50
2022-09-12T20:10:02.317Z,8.55
2022-09-12T20:12:30.381Z,9.65
2022-09-12T20:14:57.238Z,8.68
2022-09-12T20:17:24.186Z,8.85
2022-09-12T20:19:51.062Z,8.57
2022-09-12T20:22:18.032Z,8.55
2022-09-12T20:24:45.059Z,8.88
2022-09-12T20:27:11.904Z,7.65
2022-09-12T20:29:38.812Z,8.23
2022-09-12T20:32:05.863Z,8.00
2022-09-12T20:34:32.748Z,7.47
2022-09-12T20:36:59.652Z,7.75
2022-09-12T20:39:26.801Z,7.43
2022-09-12T20:41:53.746Z,7.20
2022-09-12T20:44:20.657Z,7.40
2022-09-12T20:46:47.679Z,7.28
2022-09-12T20:49:14.695Z,7.18
2022-09-12T20:51:41.508Z,7.50
2022-09-12T20:54:08.457Z,7.15
2022-09-12T20:56:36.084Z,7.38
2022-09-12T20:59:04.237Z,7.68
2022-09-12T21:01:34.431Z,7.45
2022-09-12T21:04:01.768Z,7.63
2022-09-12T21:06:28.726Z,6.85
2022-09-12T21:08:58.859Z,7.38
2022-09-12T21:11:25.674Z,7.30
2022-09-12T21:13:53.188Z,7.60
2022-09-12T21:16:21.593Z,6.97
2022-09-12T21:18:53.251Z,8.05
2022-09-12T21:21:20.127Z,7.70
2022-09-12T21:23:47.149Z,7.55
2022-09-12T21:26:14.042Z,7.00
2022-09-12T21:28:40.889Z,7.63
2022-09-12T21:31:08.760Z,7.60
2022-09-12T21:33:35.780Z,7.22
2022-09-12T21:36:03.822Z,7.15
2022-09-12T21:38:31.044Z,7.72
2022-09-12T21:41:04.456Z,7.25
2022-09-12T21:43:31.366Z,7.55
2022-09-12T21:46:01.638Z,7.18
2022-09-12T21:48:29.021Z,7.10
2022-09-12T21:50:55.863Z,7.65
2022-09-12T21:53:22.895Z,7.25
2022-09-12T21:55:50.016Z,8.15
2022-09-12T21:58:17.259Z,7.00
2022-09-12T22:00:44.708Z,6.90
2022-09-12T22:03:12.563Z,7.50
2022-09-12T22:05:42.819Z,7.60
2022-09-12T22:08:10.293Z,7.55
2022-09-12T22:10:38.571Z,7.93
2022-09-12T22:13:05.905Z,7.63
2022-09-12T22:15:41.266Z,8.20
2022-09-12T22:18:08.535Z,8.75
2022-09-12T22:20:35.446Z,8.00
2022-09-12T22:23:24.657Z,9.05
2022-09-12T22:25:54.006Z,8.43
2022-09-12T22:28:21.418Z,9.15
2022-09-12T22:30:51.087Z,9.55
2022-09-12T22:33:17.931Z,10.00
2022-09-12T22:35:44.794Z,8.82
2022-09-12T22:38:11.656Z,9.00
2022-09-12T22:40:38.491Z,9.20
2022-09-12T22:43:05.893Z,9.57
2022-09-12T22:45:32.813Z,8.20
2022-09-12T22:48:00.894Z,8.73
2022-09-12T22:50:28.271Z,8.10
2022-09-12T22:52:55.401Z,8.60
2022-09-12T22:55:22.186Z,8.63
2022-09-12T22:57:49.332Z,9.45
2022-09-12T23:00:16.236Z,8.25
2022-09-12T23:02:43.592Z,7.90
2022-09-12T23:05:10.470Z,8.63
2022-09-12T23:07:37.599Z,8.45
2022-09-12T23:10:04.718Z,8.23
2022-09-12T23:12:32.129Z,8.07
2022-09-12T23:14:58.962Z,9.30
2022-09-12T23:17:25.919Z,8.80
2022-09-12T23:19:52.787Z,8.88
2022-09-12T23:22:19.660Z,7.80
2022-09-12T23:24:46.955Z,8.52
2022-09-12T23:27:13.787Z,8.48
2022-09-12T23:29:40.685Z,7.72
2022-09-12T23:32:07.560Z,7.63
2022-09-12T23:34:34.497Z,8.98
2022-09-12T23:37:01.352Z,9.70
2022-09-12T23:39:28.187Z,9.52
2022-09-12T23:41:55.716Z,9.82
2022-09-12T23:44:22.624Z,10.43
2022-09-12T23:46:49.500Z,10.27
2022-09-12T23:49:16.342Z,9.52
2022-09-12T23:51:43.219Z,10.77
2022-09-12T23:54:10.207Z,9.80
2022-09-12T23:56:37.343Z,9.30
2022-09-12T23:59:04.133Z,10.25
